EWG6DJ EDDK-LSZH
Flight info
| Callsign | EWG6DJ |
|---|---|
| Flight time | N/A |
| Altitude | 31000 |
| Route | KUMIK1R KUMIK Y854 BOMBI T721 LAMGO/N0421F270 T721 RILAX |
| Aircraft | A319/M-SDE3FGHIRWY/LB1 |
Departure
| Time | N/A |
|---|---|
| Airport | Cologne Bonn Airport (EDDK) |
Arrival
| Time | 2026-05-05 23:17 |
|---|---|
| Airport | Zürich Airport (LSZH) |
| Time | Latitude | Longitude | Altitude | Speed | Heading |
|---|---|---|---|---|---|
| 2026-05-05 22:46 | 49.56464 | 8.96385 | 30824 ft | 397 kts | 190° |
| 2026-05-05 22:46 | 49.51020 | 8.94897 | 30823 ft | 398 kts | 189° |
| 2026-05-05 22:47 | 49.45565 | 8.93420 | 30821 ft | 398 kts | 189° |
| 2026-05-05 22:47 | 49.40147 | 8.91951 | 30823 ft | 398 kts | 189° |
| 2026-05-05 22:48 | 49.34695 | 8.90457 | 30841 ft | 398 kts | 190° |
| 2026-05-05 22:48 | 49.29251 | 8.88955 | 30833 ft | 397 kts | 190° |
| 2026-05-05 22:49 | 49.23811 | 8.87477 | 30831 ft | 397 kts | 189° |
| 2026-05-05 22:49 | 49.18379 | 8.86015 | 30821 ft | 397 kts | 189° |
| 2026-05-05 22:50 | 49.12941 | 8.84532 | 30820 ft | 397 kts | 190° |
| 2026-05-05 22:50 | 49.07499 | 8.83038 | 30828 ft | 398 kts | 190° |
| 2026-05-05 22:51 | 49.02044 | 8.81553 | 30829 ft | 398 kts | 190° |
| 2026-05-05 22:51 | 48.96583 | 8.80073 | 30831 ft | 399 kts | 191° |
| 2026-05-05 22:52 | 48.91121 | 8.78598 | 30840 ft | 399 kts | 191° |
| 2026-05-05 22:52 | 48.85658 | 8.77129 | 30837 ft | 399 kts | 191° |
| 2026-05-05 22:53 | 48.80190 | 8.75662 | 30844 ft | 398 kts | 191° |
| 2026-05-05 22:53 | 48.74731 | 8.74200 | 30902 ft | 399 kts | 191° |
| 2026-05-05 22:54 | 48.69266 | 8.72741 | 30883 ft | 398 kts | 191° |
| 2026-05-05 22:54 | 48.63813 | 8.71291 | 30871 ft | 398 kts | 191° |
| 2026-05-05 22:55 | 48.58365 | 8.69846 | 30868 ft | 397 kts | 191° |
| 2026-05-05 22:55 | 48.52921 | 8.68397 | 30864 ft | 397 kts | 191° |
| 2026-05-05 22:56 | 48.47481 | 8.66947 | 30869 ft | 397 kts | 192° |
| 2026-05-05 22:56 | 48.42046 | 8.65508 | 30867 ft | 397 kts | 191° |
| 2026-05-05 22:57 | 48.36603 | 8.64058 | 30873 ft | 397 kts | 192° |
| 2026-05-05 22:57 | 48.31185 | 8.62446 | 30878 ft | 397 kts | 193° |
| 2026-05-05 22:58 | 48.25780 | 8.60762 | 30881 ft | 397 kts | 193° |
| 2026-05-05 22:58 | 48.20406 | 8.59111 | 30884 ft | 397 kts | 193° |
| 2026-05-05 22:59 | 48.14986 | 8.57499 | 30739 ft | 397 kts | 193° |
| 2026-05-05 22:59 | 48.12268 | 8.56699 | 30490 ft | 397 kts | 193° |
| 2026-05-05 22:59 | 48.09581 | 8.55906 | 30039 ft | 393 kts | 193° |
| 2026-05-05 22:59 | 48.06903 | 8.55112 | 29420 ft | 391 kts | 193° |
| 2026-05-05 23:00 | 48.01622 | 8.53538 | 28329 ft | 383 kts | 193° |
| 2026-05-05 23:00 | 47.99000 | 8.52863 | 27771 ft | 381 kts | 187° |
| 2026-05-05 23:00 | 47.96360 | 8.52882 | 27241 ft | 380 kts | 176° |
| 2026-05-05 23:01 | 47.93773 | 8.53702 | 26692 ft | 381 kts | 165° |
| 2026-05-05 23:01 | 47.91342 | 8.55296 | 26155 ft | 383 kts | 153° |
| 2026-05-05 23:01 | 47.89163 | 8.57591 | 25630 ft | 385 kts | 144° |
| 2026-05-05 23:01 | 47.87103 | 8.60119 | 25111 ft | 383 kts | 144° |
| 2026-05-05 23:02 | 47.85044 | 8.62636 | 24605 ft | 381 kts | 144° |
| 2026-05-05 23:02 | 47.82997 | 8.65128 | 24113 ft | 380 kts | 144° |
| 2026-05-05 23:02 | 47.80954 | 8.67605 | 23629 ft | 378 kts | 144° |
| 2026-05-05 23:02 | 47.79606 | 8.69224 | 23242 ft | 377 kts | 146° |
| 2026-05-05 23:03 | 47.77346 | 8.71160 | 22146 ft | 373 kts | 161° |
| 2026-05-05 23:03 | 47.74941 | 8.72581 | 21105 ft | 372 kts | 162° |
| 2026-05-05 23:03 | 47.72534 | 8.73988 | 20098 ft | 370 kts | 162° |
| 2026-05-05 23:03 | 47.70146 | 8.75380 | 19138 ft | 367 kts | 162° |
| 2026-05-05 23:04 | 47.67771 | 8.76763 | 18196 ft | 365 kts | 162° |
| 2026-05-05 23:04 | 47.65424 | 8.78136 | 17144 ft | 361 kts | 162° |
| 2026-05-05 23:04 | 47.63107 | 8.79493 | 16431 ft | 351 kts | 162° |
| 2026-05-05 23:04 | 47.60877 | 8.80806 | 15726 ft | 340 kts | 162° |
| 2026-05-05 23:05 | 47.58672 | 8.82008 | 15025 ft | 335 kts | 169° |
| 2026-05-05 23:05 | 47.56403 | 8.82076 | 14253 ft | 325 kts | 195° |
| 2026-05-05 23:05 | 47.54414 | 8.80644 | 13049 ft | 327 kts | 222° |
| 2026-05-05 23:05 | 47.53148 | 8.77898 | 12125 ft | 324 kts | 250° |
| 2026-05-05 23:06 | 47.52735 | 8.74720 | 11778 ft | 305 kts | 259° |
| 2026-05-05 23:06 | 47.52322 | 8.71719 | 11359 ft | 290 kts | 253° |
| 2026-05-05 23:06 | 47.51746 | 8.68926 | 10960 ft | 279 kts | 248° |
| 2026-05-05 23:06 | 47.50992 | 8.66281 | 10554 ft | 278 kts | 242° |
| 2026-05-05 23:07 | 47.50072 | 8.63799 | 10158 ft | 271 kts | 237° |
| 2026-05-05 23:07 | 47.49036 | 8.61527 | 9827 ft | 262 kts | 236° |
| 2026-05-05 23:07 | 47.48341 | 8.59052 | 9398 ft | 262 kts | 256° |
| 2026-05-05 23:07 | 47.48342 | 8.56356 | 8906 ft | 265 kts | 278° |
| 2026-05-05 23:08 | 47.49035 | 8.53786 | 8790 ft | 276 kts | 297° |
| 2026-05-05 23:08 | 47.50350 | 8.51689 | 8653 ft | 285 kts | 319° |
| 2026-05-05 23:08 | 47.52138 | 8.50315 | 8531 ft | 291 kts | 331° |
| 2026-05-05 23:08 | 47.54001 | 8.49089 | 8065 ft | 295 kts | 331° |
| 2026-05-05 23:09 | 47.55861 | 8.47872 | 7791 ft | 290 kts | 331° |
| 2026-05-05 23:09 | 47.57693 | 8.46671 | 7148 ft | 290 kts | 330° |
| 2026-05-05 23:09 | 47.59524 | 8.45464 | 6404 ft | 293 kts | 330° |
| 2026-05-05 23:09 | 47.61397 | 8.44225 | 5633 ft | 295 kts | 331° |
| 2026-05-05 23:10 | 47.63254 | 8.43000 | 5030 ft | 289 kts | 331° |
| 2026-05-05 23:10 | 47.64997 | 8.41758 | 4916 ft | 263 kts | 321° |
| 2026-05-05 23:10 | 47.66092 | 8.39860 | 4850 ft | 230 kts | 289° |
| 2026-05-05 23:10 | 47.66298 | 8.37676 | 4790 ft | 203 kts | 259° |
| 2026-05-05 23:11 | 47.65797 | 8.35835 | 4747 ft | 188 kts | 234° |
| 2026-05-05 23:11 | 47.64847 | 8.34616 | 4726 ft | 177 kts | 211° |
| 2026-05-05 23:11 | 47.63659 | 8.34133 | 4695 ft | 181 kts | 187° |
| 2026-05-05 23:11 | 47.62408 | 8.34462 | 4653 ft | 187 kts | 162° |
| 2026-05-05 23:12 | 47.61333 | 8.35591 | 4613 ft | 193 kts | 142° |
| 2026-05-05 23:12 | 47.60352 | 8.36948 | 4563 ft | 193 kts | 141° |
| 2026-05-05 23:12 | 47.59366 | 8.38310 | 4401 ft | 193 kts | 142° |
| 2026-05-05 23:12 | 47.58380 | 8.39666 | 4164 ft | 193 kts | 142° |
| 2026-05-05 23:13 | 47.57400 | 8.41013 | 3910 ft | 191 kts | 142° |
| 2026-05-05 23:13 | 47.56435 | 8.42338 | 3660 ft | 188 kts | 142° |
| 2026-05-05 23:13 | 47.55497 | 8.43626 | 3416 ft | 186 kts | 142° |
| 2026-05-05 23:13 | 47.54564 | 8.44907 | 3183 ft | 178 kts | 141° |
| 2026-05-05 23:14 | 47.53690 | 8.46107 | 2949 ft | 164 kts | 141° |
| 2026-05-05 23:14 | 47.52899 | 8.47191 | 2749 ft | 146 kts | 141° |
| 2026-05-05 23:14 | 47.52179 | 8.48176 | 2552 ft | 137 kts | 140° |
| 2026-05-05 23:14 | 47.51493 | 8.49114 | 2361 ft | 132 kts | 139° |
| 2026-05-05 23:15 | 47.50825 | 8.50028 | 2171 ft | 130 kts | 139° |
| 2026-05-05 23:15 | 47.50165 | 8.50928 | 1993 ft | 128 kts | 138° |
| 2026-05-05 23:15 | 47.49517 | 8.51810 | 1807 ft | 127 kts | 137° |
| 2026-05-05 23:15 | 47.48878 | 8.52698 | 1642 ft | 126 kts | 136° |
| 2026-05-05 23:16 | 47.48239 | 8.53573 | 1459 ft | 124 kts | 139° |
| 2026-05-05 23:16 | 47.47640 | 8.54382 | 1396 ft | 101 kts | 136° |
| 2026-05-05 23:16 | 47.47217 | 8.54962 | 1385 ft | 69 kts | 137° |
| 2026-05-05 23:16 | 47.46906 | 8.55388 | 1393 ft | 58 kts | 137° |
| 2026-05-05 23:17 | 47.46650 | 8.55735 | 1398 ft | 38 kts | 137° |
| 2026-05-05 23:17 | 47.46493 | 8.55901 | 1399 ft | 28 kts | 155° |
| 2026-05-05 23:17 | 47.46316 | 8.55976 | 1401 ft | 19 kts | 168° |
| 2026-05-05 23:17 | 47.46196 | 8.56006 | 1409 ft | 18 kts | 180° |
| 2026-05-05 23:18 | 47.46064 | 8.55985 | 1407 ft | 20 kts | 185° |
| 2026-05-05 23:18 | 47.45912 | 8.55940 | 1407 ft | 24 kts | 200° |
| 2026-05-05 23:18 | 47.45751 | 8.55873 | 1409 ft | 25 kts | 187° |
| 2026-05-05 23:18 | 47.45607 | 8.55850 | 1409 ft | 19 kts | 186° |
| 2026-05-05 23:19 | 47.45487 | 8.55814 | 1411 ft | 15 kts | 192° |
| 2026-05-05 23:19 | 47.45423 | 8.55803 | 1407 ft | 0 kts | 186° |